sensor_id;sensor_type;location;lat;lon;timestamp;pressure;altitude;pressure_sealevel;temperature;humidity
22653;BME280;11493;43.344;26.226;2023-12-22T00:02:21;97734.03;;;1.36;100.00
22653;BME280;11493;43.344;26.226;2023-12-22T00:04:50;97741.78;;;1.42;100.00
22653;BME280;11493;43.344;26.226;2023-12-22T00:07:17;97731.47;;;1.44;100.00
22653;BME280;11493;43.344;26.226;2023-12-22T00:09:47;97716.00;;;1.45;100.00
22653;BME280;11493;43.344;26.226;2023-12-22T00:12:13;97717.50;;;1.51;100.00
22653;BME280;11493;43.344;26.226;2023-12-22T00:14:40;97715.91;;;1.50;100.00
22653;BME280;11493;43.344;26.226;2023-12-22T00:17:08;97710.47;;;1.50;100.00
22653;BME280;11493;43.344;26.226;2023-12-22T00:19:35;97730.47;;;1.54;100.00
22653;BME280;11493;43.344;26.226;2023-12-22T00:22:02;97729.38;;;1.55;100.00
22653;BME280;11493;43.344;26.226;2023-12-22T00:24:30;97728.47;;;1.46;100.00
22653;BME280;11493;43.344;26.226;2023-12-22T00:26:57;97717.19;;;1.39;100.00
22653;BME280;11493;43.344;26.226;2023-12-22T00:29:24;97720.47;;;1.36;100.00
22653;BME280;11493;43.344;26.226;2023-12-22T00:31:51;97734.41;;;1.48;100.00
22653;BME280;11493;43.344;26.226;2023-12-22T00:34:18;97725.63;;;1.51;100.00
22653;BME280;11493;43.344;26.226;2023-12-22T00:36:46;97721.03;;;1.51;100.00
22653;BME280;11493;43.344;26.226;2023-12-22T00:39:13;97722.84;;;1.56;100.00
22653;BME280;11493;43.344;26.226;2023-12-22T00:41:40;97713.41;;;1.53;100.00
22653;BME280;11493;43.344;26.226;2023-12-22T00:44:07;97715.03;;;1.54;100.00
22653;BME280;11493;43.344;26.226;2023-12-22T00:46:34;97719.38;;;1.37;100.00
22653;BME280;11493;43.344;26.226;2023-12-22T00:49:01;97710.22;;;1.33;100.00
22653;BME280;11493;43.344;26.226;2023-12-22T00:51:28;97711.34;;;1.31;100.00
22653;BME280;11493;43.344;26.226;2023-12-22T00:53:55;97706.66;;;1.18;100.00
22653;BME280;11493;43.344;26.226;2023-12-22T00:56:21;97716.91;;;1.21;100.00
22653;BME280;11493;43.344;26.226;2023-12-22T00:58:48;97688.34;;;1.10;100.00
22653;BME280;11493;43.344;26.226;2023-12-22T01:01:27;97695.38;;;1.11;100.00
22653;BME280;11493;43.344;26.226;2023-12-22T01:03:54;97675.03;;;1.14;100.00
22653;BME280;11493;43.344;26.226;2023-12-22T01:06:21;97682.34;;;1.13;100.00
22653;BME280;11493;43.344;26.226;2023-12-22T01:08:53;97668.06;;;1.08;100.00
22653;BME280;11493;43.344;26.226;2023-12-22T01:11:20;97666.69;;;1.10;100.00
22653;BME280;11493;43.344;26.226;2023-12-22T01:13:47;97668.94;;;1.22;100.00
22653;BME280;11493;43.344;26.226;2023-12-22T01:16:14;97657.81;;;1.23;100.00
22653;BME280;11493;43.344;26.226;2023-12-22T01:18:45;97649.69;;;1.05;100.00
22653;BME280;11493;43.344;26.226;2023-12-22T01:21:12;97653.16;;;1.10;100.00
22653;BME280;11493;43.344;26.226;2023-12-22T01:23:39;97645.75;;;1.16;100.00
22653;BME280;11493;43.344;26.226;2023-12-22T01:26:06;97644.00;;;1.06;100.00
22653;BME280;11493;43.344;26.226;2023-12-22T01:28:34;97654.97;;;1.15;100.00
22653;BME280;11493;43.344;26.226;2023-12-22T01:31:03;97649.84;;;1.13;100.00
22653;BME280;11493;43.344;26.226;2023-12-22T01:33:30;97607.56;;;0.80;100.00
22653;BME280;11493;43.344;26.226;2023-12-22T01:35:57;97623.16;;;0.88;100.00
22653;BME280;11493;43.344;26.226;2023-12-22T01:38:23;97624.69;;;0.94;100.00
22653;BME280;11493;43.344;26.226;2023-12-22T01:40:50;97622.91;;;1.03;100.00
22653;BME280;11493;43.344;26.226;2023-12-22T01:43:17;97607.84;;;0.97;100.00
22653;BME280;11493;43.344;26.226;2023-12-22T01:45:50;97594.22;;;1.02;100.00
22653;BME280;11493;43.344;26.226;2023-12-22T01:48:19;97599.69;;;1.16;100.00
22653;BME280;11493;43.344;26.226;2023-12-22T01:50:46;97600.41;;;1.21;100.00
22653;BME280;11493;43.344;26.226;2023-12-22T01:53:13;97583.38;;;1.21;100.00
22653;BME280;11493;43.344;26.226;2023-12-22T01:55:41;97571.94;;;1.24;100.00
22653;BME280;11493;43.344;26.226;2023-12-22T01:58:08;97556.88;;;1.18;100.00
22653;BME280;11493;43.344;26.226;2023-12-22T02:00:37;97542.09;;;1.10;100.00
22653;BME280;11493;43.344;26.226;2023-12-22T02:03:04;97549.13;;;1.11;100.00
22653;BME280;11493;43.344;26.226;2023-12-22T02:05:31;97539.91;;;1.12;100.00
22653;BME280;11493;43.344;26.226;2023-12-22T02:07:58;97524.25;;;1.09;100.00
22653;BME280;11493;43.344;26.226;2023-12-22T02:10:26;97523.75;;;1.07;100.00
22653;BME280;11493;43.344;26.226;2023-12-22T02:12:53;97532.56;;;1.13;100.00
22653;BME280;11493;43.344;26.226;2023-12-22T02:15:20;97526.44;;;1.07;100.00
22653;BME280;11493;43.344;26.226;2023-12-22T02:18:03;97516.13;;;1.09;100.00
22653;BME280;11493;43.344;26.226;2023-12-22T02:20:32;97507.56;;;1.02;100.00
22653;BME280;11493;43.344;26.226;2023-12-22T02:22:59;97505.00;;;1.11;100.00
22653;BME280;11493;43.344;26.226;2023-12-22T02:25:26;97529.44;;;1.06;100.00
22653;BME280;11493;43.344;26.226;2023-12-22T02:27:58;97519.00;;;0.99;100.00
22653;BME280;11493;43.344;26.226;2023-12-22T02:32:59;97507.75;;;0.92;100.00
22653;BME280;11493;43.344;26.226;2023-12-22T02:35:28;97499.31;;;0.93;100.00
22653;BME280;11493;43.344;26.226;2023-12-22T02:37:57;97496.84;;;0.97;100.00
22653;BME280;11493;43.344;26.226;2023-12-22T02:40:26;97493.03;;;0.98;100.00
22653;BME280;11493;43.344;26.226;2023-12-22T02:42:53;97503.84;;;0.98;100.00
22653;BME280;11493;43.344;26.226;2023-12-22T02:45:21;97492.31;;;0.92;100.00
22653;BME280;11493;43.344;26.226;2023-12-22T02:47:48;97486.38;;;0.90;100.00
22653;BME280;11493;43.344;26.226;2023-12-22T02:50:17;97483.97;;;0.89;100.00
22653;BME280;11493;43.344;26.226;2023-12-22T02:52:46;97478.66;;;0.84;100.00
22653;BME280;11493;43.344;26.226;2023-12-22T02:55:13;97482.25;;;0.79;100.00
22653;BME280;11493;43.344;26.226;2023-12-22T02:57:40;97467.41;;;0.77;100.00
22653;BME280;11493;43.344;26.226;2023-12-22T03:00:08;97459.56;;;0.75;100.00
22653;BME280;11493;43.344;26.226;2023-12-22T03:02:35;97482.16;;;0.84;100.00
22653;BME280;11493;43.344;26.226;2023-12-22T03:05:02;97459.28;;;0.77;100.00
22653;BME280;11493;43.344;26.226;2023-12-22T03:07:28;97458.97;;;0.78;100.00
22653;BME280;11493;43.344;26.226;2023-12-22T03:09:55;97448.94;;;0.79;100.00
22653;BME280;11493;43.344;26.226;2023-12-22T03:12:22;97435.94;;;0.81;100.00
22653;BME280;11493;43.344;26.226;2023-12-22T03:14:49;97438.53;;;0.86;100.00
22653;BME280;11493;43.344;26.226;2023-12-22T03:17:16;97432.53;;;0.89;100.00
22653;BME280;11493;43.344;26.226;2023-12-22T03:19:43;97435.97;;;0.94;100.00
22653;BME280;11493;43.344;26.226;2023-12-22T03:22:10;97441.38;;;0.94;100.00
22653;BME280;11493;43.344;26.226;2023-12-22T03:24:37;97438.88;;;0.98;100.00
22653;BME280;11493;43.344;26.226;2023-12-22T03:27:05;97418.31;;;0.97;100.00
22653;BME280;11493;43.344;26.226;2023-12-22T03:29:32;97409.78;;;0.90;100.00
22653;BME280;11493;43.344;26.226;2023-12-22T03:31:59;97411.88;;;0.93;100.00
22653;BME280;11493;43.344;26.226;2023-12-22T03:34:26;97420.22;;;0.96;100.00
22653;BME280;11493;43.344;26.226;2023-12-22T03:36:53;97417.72;;;1.00;100.00
22653;BME280;11493;43.344;26.226;2023-12-22T03:39:20;97425.25;;;1.03;100.00
22653;BME280;11493;43.344;26.226;2023-12-22T03:41:47;97410.38;;;1.01;100.00
22653;BME280;11493;43.344;26.226;2023-12-22T03:44:14;97407.97;;;0.99;100.00
22653;BME280;11493;43.344;26.226;2023-12-22T03:46:41;97414.50;;;0.98;100.00
22653;BME280;11493;43.344;26.226;2023-12-22T03:49:08;97424.72;;;1.01;100.00
22653;BME280;11493;43.344;26.226;2023-12-22T03:51:35;97436.78;;;1.09;100.00
22653;BME280;11493;43.344;26.226;2023-12-22T03:54:01;97434.97;;;1.18;100.00
22653;BME280;11493;43.344;26.226;2023-12-22T03:56:29;97434.88;;;1.23;100.00
22653;BME280;11493;43.344;26.226;2023-12-22T03:58:56;97409.91;;;1.12;100.00
22653;BME280;11493;43.344;26.226;2023-12-22T04:01:23;97431.47;;;1.17;100.00
22653;BME280;11493;43.344;26.226;2023-12-22T04:03:50;97436.28;;;1.20;100.00
22653;BME280;11493;43.344;26.226;2023-12-22T04:06:16;97413.81;;;1.06;100.00
22653;BME280;11493;43.344;26.226;2023-12-22T04:08:43;97426.75;;;1.09;100.00
22653;BME280;11493;43.344;26.226;2023-12-22T04:11:10;97423.53;;;1.07;100.00
22653;BME280;11493;43.344;26.226;2023-12-22T04:13:37;97416.09;;;0.99;100.00
22653;BME280;11493;43.344;26.226;2023-12-22T04:16:04;97418.13;;;1.07;100.00
22653;BME280;11493;43.344;26.226;2023-12-22T04:18:31;97421.34;;;1.09;100.00
22653;BME280;11493;43.344;26.226;2023-12-22T04:20:59;97409.09;;;0.98;100.00
22653;BME280;11493;43.344;26.226;2023-12-22T04:23:26;97403.47;;;0.94;100.00
22653;BME280;11493;43.344;26.226;2023-12-22T04:25:52;97418.22;;;1.02;100.00
22653;BME280;11493;43.344;26.226;2023-12-22T04:28:20;97424.53;;;1.11;100.00
22653;BME280;11493;43.344;26.226;2023-12-22T04:30:47;97404.28;;;0.95;100.00
22653;BME280;11493;43.344;26.226;2023-12-22T04:33:14;97433.19;;;1.13;100.00
22653;BME280;11493;43.344;26.226;2023-12-22T04:35:41;97403.38;;;1.13;100.00
22653;BME280;11493;43.344;26.226;2023-12-22T04:38:08;97416.72;;;1.23;100.00
22653;BME280;11493;43.344;26.226;2023-12-22T04:40:35;97407.09;;;1.17;100.00
22653;BME280;11493;43.344;26.226;2023-12-22T04:43:02;97405.28;;;1.26;100.00
22653;BME280;11493;43.344;26.226;2023-12-22T04:45:29;97403.59;;;1.30;100.00
22653;BME280;11493;43.344;26.226;2023-12-22T04:47:56;97412.13;;;1.38;100.00
22653;BME280;11493;43.344;26.226;2023-12-22T04:50:24;97410.50;;;1.37;100.00
22653;BME280;11493;43.344;26.226;2023-12-22T04:52:51;97397.47;;;1.39;100.00
22653;BME280;11493;43.344;26.226;2023-12-22T04:55:18;97404.88;;;1.47;100.00
22653;BME280;11493;43.344;26.226;2023-12-22T04:57:45;97397.38;;;1.44;100.00
22653;BME280;11493;43.344;26.226;2023-12-22T05:00:12;97410.66;;;1.54;100.00
22653;BME280;11493;43.344;26.226;2023-12-22T05:02:39;97397.72;;;1.51;100.00
22653;BME280;11493;43.344;26.226;2023-12-22T05:05:06;97406.84;;;1.55;100.00
22653;BME280;11493;43.344;26.226;2023-12-22T05:07:34;97403.16;;;1.51;100.00
22653;BME280;11493;43.344;26.226;2023-12-22T05:10:02;97396.00;;;1.55;100.00
22653;BME280;11493;43.344;26.226;2023-12-22T05:12:29;97405.84;;;1.64;100.00
22653;BME280;11493;43.344;26.226;2023-12-22T05:14:56;97402.91;;;1.75;100.00
22653;BME280;11493;43.344;26.226;2023-12-22T05:17:23;97399.41;;;1.60;100.00
22653;BME280;11493;43.344;26.226;2023-12-22T05:19:50;97401.94;;;1.57;100.00
22653;BME280;11493;43.344;26.226;2023-12-22T05:22:17;97401.53;;;1.63;100.00
22653;BME280;11493;43.344;26.226;2023-12-22T05:24:44;97397.72;;;1.64;100.00
22653;BME280;11493;43.344;26.226;2023-12-22T05:27:11;97389.38;;;1.61;100.00
22653;BME280;11493;43.344;26.226;2023-12-22T05:29:38;97396.50;;;1.71;100.00
22653;BME280;11493;43.344;26.226;2023-12-22T05:32:06;97395.69;;;1.70;100.00
22653;BME280;11493;43.344;26.226;2023-12-22T05:34:33;97404.22;;;1.77;100.00
22653;BME280;11493;43.344;26.226;2023-12-22T05:37:00;97398.59;;;1.74;100.00
22653;BME280;11493;43.344;26.226;2023-12-22T05:39:27;97402.91;;;1.75;100.00
22653;BME280;11493;43.344;26.226;2023-12-22T05:41:54;97411.25;;;1.78;100.00
22653;BME280;11493;43.344;26.226;2023-12-22T05:44:21;97398.50;;;1.79;100.00
22653;BME280;11493;43.344;26.226;2023-12-22T05:46:49;97408.41;;;1.83;100.00
22653;BME280;11493;43.344;26.226;2023-12-22T05:49:16;97403.81;;;1.84;100.00
22653;BME280;11493;43.344;26.226;2023-12-22T05:51:43;97412.75;;;1.84;100.00
22653;BME280;11493;43.344;26.226;2023-12-22T05:54:10;97411.81;;;1.89;100.00
22653;BME280;11493;43.344;26.226;2023-12-22T05:56:38;97397.88;;;1.82;100.00
22653;BME280;11493;43.344;26.226;2023-12-22T05:59:05;97401.47;;;1.91;100.00
22653;BME280;11493;43.344;26.226;2023-12-22T06:01:32;97405.09;;;1.86;100.00
22653;BME280;11493;43.344;26.226;2023-12-22T06:03:59;97404.00;;;1.87;100.00
22653;BME280;11493;43.344;26.226;2023-12-22T06:06:26;97400.28;;;1.83;100.00
22653;BME280;11493;43.344;26.226;2023-12-22T06:08:54;97405.59;;;1.88;100.00
22653;BME280;11493;43.344;26.226;2023-12-22T06:11:21;97395.97;;;1.82;100.00
22653;BME280;11493;43.344;26.226;2023-12-22T06:13:49;97389.13;;;1.85;100.00
22653;BME280;11493;43.344;26.226;2023-12-22T06:16:16;97391.72;;;1.90;100.00
22653;BME280;11493;43.344;26.226;2023-12-22T06:18:45;97392.34;;;1.87;100.00
22653;BME280;11493;43.344;26.226;2023-12-22T06:21:12;97371.94;;;1.89;100.00
22653;BME280;11493;43.344;26.226;2023-12-22T06:23:39;97383.06;;;2.02;100.00
22653;BME280;11493;43.344;26.226;2023-12-22T06:26:10;97372.44;;;1.91;100.00
22653;BME280;11493;43.344;26.226;2023-12-22T06:28:38;97374.81;;;2.07;100.00
22653;BME280;11493;43.344;26.226;2023-12-22T06:31:08;97378.31;;;2.07;100.00
22653;BME280;11493;43.344;26.226;2023-12-22T06:33:45;97377.22;;;2.08;100.00
22653;BME280;11493;43.344;26.226;2023-12-22T06:36:21;97375.38;;;2.17;100.00
22653;BME280;11493;43.344;26.226;2023-12-22T06:38:52;97380.84;;;2.26;100.00
22653;BME280;11493;43.344;26.226;2023-12-22T06:43:55;97380.72;;;2.31;100.00
22653;BME280;11493;43.344;26.226;2023-12-22T06:46:23;97387.13;;;2.35;100.00
22653;BME280;11493;43.344;26.226;2023-12-22T06:48:53;97376.28;;;2.35;100.00
22653;BME280;11493;43.344;26.226;2023-12-22T06:51:26;97378.25;;;2.43;100.00
22653;BME280;11493;43.344;26.226;2023-12-22T06:53:54;97391.88;;;2.52;100.00
22653;BME280;11493;43.344;26.226;2023-12-22T06:56:25;97387.06;;;2.49;100.00
22653;BME280;11493;43.344;26.226;2023-12-22T06:58:54;97395.25;;;2.57;100.00
22653;BME280;11493;43.344;26.226;2023-12-22T07:01:32;97369.09;;;2.61;100.00
22653;BME280;11493;43.344;26.226;2023-12-22T07:04:00;97384.50;;;2.75;100.00
22653;BME280;11493;43.344;26.226;2023-12-22T07:06:32;97374.00;;;2.82;100.00
22653;BME280;11493;43.344;26.226;2023-12-22T07:11:39;97372.97;;;3.09;100.00
22653;BME280;11493;43.344;26.226;2023-12-22T07:14:07;97376.84;;;3.16;100.00
22653;BME280;11493;43.344;26.226;2023-12-22T07:16:35;97372.69;;;3.19;100.00
22653;BME280;11493;43.344;26.226;2023-12-22T07:19:03;97368.41;;;3.26;100.00
22653;BME280;11493;43.344;26.226;2023-12-22T07:21:31;97374.19;;;3.34;100.00
22653;BME280;11493;43.344;26.226;2023-12-22T07:23:58;97370.69;;;3.42;100.00
22653;BME280;11493;43.344;26.226;2023-12-22T07:26:27;97368.47;;;3.44;100.00
22653;BME280;11493;43.344;26.226;2023-12-22T07:28:54;97383.06;;;3.56;100.00
22653;BME280;11493;43.344;26.226;2023-12-22T07:31:21;97369.28;;;3.53;100.00
22653;BME280;11493;43.344;26.226;2023-12-22T07:33:57;97323.47;;;3.20;100.00
22653;BME280;11493;43.344;26.226;2023-12-22T07:36:24;97381.91;;;3.49;100.00
22653;BME280;11493;43.344;26.226;2023-12-22T07:38:51;97381.91;;;3.49;100.00
22653;BME280;11493;43.344;26.226;2023-12-22T07:41:18;97394.53;;;3.45;100.00
22653;BME280;11493;43.344;26.226;2023-12-22T07:43:46;97399.50;;;3.51;100.00
22653;BME280;11493;43.344;26.226;2023-12-22T07:46:17;97399.19;;;3.53;100.00
22653;BME280;11493;43.344;26.226;2023-12-22T07:48:45;97394.88;;;3.52;100.00
22653;BME280;11493;43.344;26.226;2023-12-22T07:51:12;97401.13;;;3.61;100.00
22653;BME280;11493;43.344;26.226;2023-12-22T07:53:39;97399.22;;;3.61;100.00
22653;BME280;11493;43.344;26.226;2023-12-22T07:56:07;97383.88;;;3.66;100.00
22653;BME280;11493;43.344;26.226;2023-12-22T07:58:35;97387.38;;;3.75;100.00
22653;BME280;11493;43.344;26.226;2023-12-22T08:01:02;97404.69;;;3.87;100.00
22653;BME280;11493;43.344;26.226;2023-12-22T08:03:29;97406.75;;;3.90;100.00
22653;BME280;11493;43.344;26.226;2023-12-22T08:05:56;97407.59;;;4.00;100.00
22653;BME280;11493;43.344;26.226;2023-12-22T08:08:23;97402.63;;;4.02;100.00
22653;BME280;11493;43.344;26.226;2023-12-22T08:10:50;97393.50;;;3.97;100.00
22653;BME280;11493;43.344;26.226;2023-12-22T08:13:17;97383.09;;;3.91;100.00
22653;BME280;11493;43.344;26.226;2023-12-22T08:15:44;97367.22;;;3.84;100.00
22653;BME280;11493;43.344;26.226;2023-12-22T08:18:11;97383.25;;;3.94;100.00
22653;BME280;11493;43.344;26.226;2023-12-22T08:20:39;97402.16;;;4.08;100.00
22653;BME280;11493;43.344;26.226;2023-12-22T08:23:10;97379.41;;;4.13;100.00
22653;BME280;11493;43.344;26.226;2023-12-22T08:25:40;97377.50;;;4.31;100.00
22653;BME280;11493;43.344;26.226;2023-12-22T08:28:10;97378.44;;;4.43;100.00
22653;BME280;11493;43.344;26.226;2023-12-22T08:30:39;97382.25;;;4.59;100.00
22653;BME280;11493;43.344;26.226;2023-12-22T08:33:06;97362.69;;;4.57;100.00
22653;BME280;11493;43.344;26.226;2023-12-22T08:35:33;97365.88;;;4.77;100.00
22653;BME280;11493;43.344;26.226;2023-12-22T08:38:02;97355.53;;;5.00;100.00
22653;BME280;11493;43.344;26.226;2023-12-22T08:40:29;97367.59;;;5.28;100.00
22653;BME280;11493;43.344;26.226;2023-12-22T08:42:57;97362.00;;;5.54;100.00
22653;BME280;11493;43.344;26.226;2023-12-22T08:45:27;97358.03;;;5.72;100.00
22653;BME280;11493;43.344;26.226;2023-12-22T08:47:58;97361.19;;;5.83;100.00
22653;BME280;11493;43.344;26.226;2023-12-22T08:50:26;97343.41;;;5.98;100.00
22653;BME280;11493;43.344;26.226;2023-12-22T08:52:53;97353.94;;;6.08;100.00
22653;BME280;11493;43.344;26.226;2023-12-22T08:55:20;97363.13;;;6.24;100.00
22653;BME280;11493;43.344;26.226;2023-12-22T08:57:47;97356.94;;;6.15;100.00
22653;BME280;11493;43.344;26.226;2023-12-22T09:00:25;97344.88;;;5.95;100.00
22653;BME280;11493;43.344;26.226;2023-12-22T09:02:52;97344.22;;;5.98;100.00
22653;BME280;11493;43.344;26.226;2023-12-22T09:05:20;97347.81;;;6.11;100.00
22653;BME280;11493;43.344;26.226;2023-12-22T09:07:49;97324.63;;;6.17;100.00
22653;BME280;11493;43.344;26.226;2023-12-22T09:10:16;97311.28;;;6.36;100.00
22653;BME280;11493;43.344;26.226;2023-12-22T09:12:43;97311.16;;;6.66;100.00
22653;BME280;11493;43.344;26.226;2023-12-22T09:15:10;97310.94;;;6.95;100.00
22653;BME280;11493;43.344;26.226;2023-12-22T09:17:37;97327.16;;;7.24;100.00
22653;BME280;11493;43.344;26.226;2023-12-22T09:20:05;97309.94;;;7.36;100.00
22653;BME280;11493;43.344;26.226;2023-12-22T09:22:32;97289.84;;;7.44;100.00
22653;BME280;11493;43.344;26.226;2023-12-22T09:25:00;97297.09;;;7.77;100.00
22653;BME280;11493;43.344;26.226;2023-12-22T09:27:27;97297.72;;;7.98;99.51
22653;BME280;11493;43.344;26.226;2023-12-22T09:29:57;97279.09;;;8.04;100.00
22653;BME280;11493;43.344;26.226;2023-12-22T09:32:24;97286.56;;;8.19;100.00
22653;BME280;11493;43.344;26.226;2023-12-22T09:34:51;97258.47;;;8.22;99.75
22653;BME280;11493;43.344;26.226;2023-12-22T09:37:18;97270.41;;;8.57;97.46
22653;BME280;11493;43.344;26.226;2023-12-22T09:39:45;97268.50;;;8.74;96.00
22653;BME280;11493;43.344;26.226;2023-12-22T09:42:12;97254.97;;;8.81;94.17
22653;BME280;11493;43.344;26.226;2023-12-22T09:44:39;97282.00;;;9.14;93.19
22653;BME280;11493;43.344;26.226;2023-12-22T09:47:09;97269.19;;;9.18;92.62
22653;BME280;11493;43.344;26.226;2023-12-22T09:49:40;97267.09;;;9.46;91.26
22653;BME280;11493;43.344;26.226;2023-12-22T09:52:08;97275.13;;;9.55;91.31
22653;BME280;11493;43.344;26.226;2023-12-22T09:54:37;97266.72;;;9.64;91.43
22653;BME280;11493;43.344;26.226;2023-12-22T09:57:05;97277.34;;;9.84;90.55
22653;BME280;11493;43.344;26.226;2023-12-22T09:59:48;97266.00;;;9.86;90.96
22653;BME280;11493;43.344;26.226;2023-12-22T10:02:18;97262.31;;;10.17;90.34
22653;BME280;11493;43.344;26.226;2023-12-22T10:04:45;97266.31;;;10.19;88.60
22653;BME280;11493;43.344;26.226;2023-12-22T10:07:13;97269.13;;;10.23;89.25
22653;BME280;11493;43.344;26.226;2023-12-22T10:09:42;97271.13;;;10.07;90.17
22653;BME280;11493;43.344;26.226;2023-12-22T10:12:11;97272.41;;;10.29;89.95
22653;BME280;11493;43.344;26.226;2023-12-22T10:14:39;97273.75;;;10.19;88.92
22653;BME280;11493;43.344;26.226;2023-12-22T10:17:07;97286.47;;;10.08;90.75
22653;BME280;11493;43.344;26.226;2023-12-22T10:19:34;97254.88;;;9.98;90.64
22653;BME280;11493;43.344;26.226;2023-12-22T10:22:01;97252.91;;;9.99;91.30
22653;BME280;11493;43.344;26.226;2023-12-22T10:24:44;97283.16;;;10.18;90.56
22653;BME280;11493;43.344;26.226;2023-12-22T10:27:15;97276.34;;;10.12;90.52
22653;BME280;11493;43.344;26.226;2023-12-22T10:29:55;97268.69;;;10.02;91.09
22653;BME280;11493;43.344;26.226;2023-12-22T10:32:23;97253.34;;;10.01;91.85
22653;BME280;11493;43.344;26.226;2023-12-22T10:34:53;97264.47;;;10.08;90.85
22653;BME280;11493;43.344;26.226;2023-12-22T10:37:21;97273.19;;;10.29;91.94
22653;BME280;11493;43.344;26.226;2023-12-22T10:39:52;97261.16;;;9.99;93.41
22653;BME280;11493;43.344;26.226;2023-12-22T10:42:19;97278.84;;;9.82;93.43
22653;BME280;11493;43.344;26.226;2023-12-22T10:44:46;97280.50;;;9.86;94.61
22653;BME280;11493;43.344;26.226;2023-12-22T10:47:17;97274.94;;;9.83;95.01
22653;BME280;11493;43.344;26.226;2023-12-22T10:49:45;97275.16;;;9.74;95.25
22653;BME280;11493;43.344;26.226;2023-12-22T10:52:17;97257.09;;;9.73;95.79
22653;BME280;11493;43.344;26.226;2023-12-22T10:54:44;97246.81;;;9.70;96.46
22653;BME280;11493;43.344;26.226;2023-12-22T10:57:12;97264.69;;;9.80;95.45
22653;BME280;11493;43.344;26.226;2023-12-22T10:59:44;97248.84;;;9.73;96.84
22653;BME280;11493;43.344;26.226;2023-12-22T11:02:19;97246.38;;;9.68;96.60
22653;BME280;11493;43.344;26.226;2023-12-22T11:05:03;97244.44;;;9.69;97.46
22653;BME280;11493;43.344;26.226;2023-12-22T11:07:36;97256.03;;;9.43;98.25
22653;BME280;11493;43.344;26.226;2023-12-22T11:10:06;97256.28;;;9.53;98.28
22653;BME280;11493;43.344;26.226;2023-12-22T11:12:37;97253.34;;;9.62;98.52
22653;BME280;11493;43.344;26.226;2023-12-22T11:15:05;97246.53;;;9.75;98.37
22653;BME280;11493;43.344;26.226;2023-12-22T11:17:33;97256.66;;;9.71;98.42
22653;BME280;11493;43.344;26.226;2023-12-22T11:20:03;97232.94;;;9.82;98.04
22653;BME280;11493;43.344;26.226;2023-12-22T11:22:31;97240.47;;;9.85;98.61
22653;BME280;11493;43.344;26.226;2023-12-22T11:25:00;97247.97;;;9.69;98.99
22653;BME280;11493;43.344;26.226;2023-12-22T11:27:29;97225.38;;;9.76;98.32
22653;BME280;11493;43.344;26.226;2023-12-22T11:29:56;97218.88;;;9.65;98.59
22653;BME280;11493;43.344;26.226;2023-12-22T11:32:25;97229.91;;;9.68;98.99
22653;BME280;11493;43.344;26.226;2023-12-22T11:34:54;97206.66;;;9.62;99.27
22653;BME280;11493;43.344;26.226;2023-12-22T11:37:23;97209.41;;;9.62;99.65
22653;BME280;11493;43.344;26.226;2023-12-22T11:39:50;97207.22;;;9.71;100.00
22653;BME280;11493;43.344;26.226;2023-12-22T11:42:23;97192.22;;;9.65;100.00
22653;BME280;11493;43.344;26.226;2023-12-22T11:44:52;97186.56;;;9.58;100.00
22653;BME280;11493;43.344;26.226;2023-12-22T11:47:22;97214.44;;;9.79;100.00
22653;BME280;11493;43.344;26.226;2023-12-22T11:49:50;97208.53;;;9.97;98.94
22653;BME280;11493;43.344;26.226;2023-12-22T11:52:18;97216.94;;;10.23;98.09
22653;BME280;11493;43.344;26.226;2023-12-22T11:54:53;97221.94;;;10.40;97.22
22653;BME280;11493;43.344;26.226;2023-12-22T11:57:35;97225.25;;;10.49;97.30
22653;BME280;11493;43.344;26.226;2023-12-22T12:00:09;97223.06;;;10.59;97.05
22653;BME280;11493;43.344;26.226;2023-12-22T12:02:39;97228.06;;;10.30;93.85
22653;BME280;11493;43.344;26.226;2023-12-22T12:05:08;97226.75;;;10.24;90.43
22653;BME280;11493;43.344;26.226;2023-12-22T12:07:40;97212.84;;;10.17;90.21
22653;BME280;11493;43.344;26.226;2023-12-22T12:10:12;97230.06;;;10.14;89.89
22653;BME280;11493;43.344;26.226;2023-12-22T12:12:39;97236.16;;;10.23;90.09
22653;BME280;11493;43.344;26.226;2023-12-22T12:15:12;97240.19;;;10.10;90.55
22653;BME280;11493;43.344;26.226;2023-12-22T12:17:43;97242.03;;;10.22;89.95
22653;BME280;11493;43.344;26.226;2023-12-22T12:20:10;97256.41;;;10.34;89.14
22653;BME280;11493;43.344;26.226;2023-12-22T12:22:38;97257.50;;;10.30;87.60
22653;BME280;11493;43.344;26.226;2023-12-22T12:25:10;97249.72;;;9.97;87.39
22653;BME280;11493;43.344;26.226;2023-12-22T12:28:02;97260.44;;;10.02;89.05
22653;BME280;11493;43.344;26.226;2023-12-22T12:30:30;97266.56;;;9.95;88.75
22653;BME280;11493;43.344;26.226;2023-12-22T12:33:11;97267.53;;;10.03;87.42
22653;BME280;11493;43.344;26.226;2023-12-22T12:35:39;97261.16;;;9.99;89.64
22653;BME280;11493;43.344;26.226;2023-12-22T12:38:11;97260.84;;;9.84;90.36
22653;BME280;11493;43.344;26.226;2023-12-22T12:40:40;97260.38;;;9.98;91.22
22653;BME280;11493;43.344;26.226;2023-12-22T12:43:08;97221.81;;;9.75;90.25
22653;BME280;11493;43.344;26.226;2023-12-22T12:45:35;97237.50;;;9.94;90.28
22653;BME280;11493;43.344;26.226;2023-12-22T12:48:03;97267.53;;;10.03;90.27
22653;BME280;11493;43.344;26.226;2023-12-22T12:50:33;97253.00;;;10.02;89.56
22653;BME280;11493;43.344;26.226;2023-12-22T12:53:01;97259.91;;;9.77;89.26
22653;BME280;11493;43.344;26.226;2023-12-22T12:55:29;97254.84;;;9.79;89.18
22653;BME280;11493;43.344;26.226;2023-12-22T12:57:56;97259.81;;;9.73;88.76
22653;BME280;11493;43.344;26.226;2023-12-22T13:00:31;97260.97;;;9.72;87.77
22653;BME280;11493;43.344;26.226;2023-12-22T13:03:03;97264.97;;;9.55;89.08
22653;BME280;11493;43.344;26.226;2023-12-22T13:05:31;97272.41;;;9.55;88.17
22653;BME280;11493;43.344;26.226;2023-12-22T13:08:12;97261.69;;;9.50;87.30